< Typhoon 201502 2015 Season Typhoon 201504 >
Typhoon 201503 (BAVI)
General InformationTrack Information on Google MapsDetailed Wind InformationForecast History on Google MapsAccess Analytics MapList of All Images || NewsDisaster Info.WeblogTrackbackTyphoon FrontTwiphoonTyphoon Now!Typhoon ImaginationDisaster Info. XMLResourceGoogle EarthGE AnimationAtom FeedGeoJSON
Detalied Best Track (Time Zone = UTC)
Year Month Day Hour Lat. Long. Pressure (hPa) Wind (kt) Class Image Chart
2015 3 10 06 4.3 173.4 998 0 2 Image Chart
2015 3 10 12 5.4 172.7 998 0 2 Image Chart
2015 3 10 18 6.3 171.8 998 0 2 Image Chart
2015 3 11 00 6.7 170.9 998 0 2 Image Chart
2015 3 11 06 6.8 170.0 996 35 3 Image Chart
2015 3 11 12 6.8 169.0 996 35 3 Image Chart
2015 3 11 18 7.3 168.1 996 35 3 Image Chart
2015 3 12 00 7.4 166.9 994 35 3 Image Chart
2015 3 12 06 8.1 166.1 994 35 3 Image Chart
2015 3 12 12 8.3 164.0 992 40 3 Image Chart
2015 3 12 18 8.4 162.5 992 40 3 Image Chart
2015 3 13 00 8.7 160.8 992 40 3 Image Chart
2015 3 13 06 9.0 159.9 992 40 3 Image Chart
2015 3 13 12 9.8 158.6 992 40 3 Image Chart
2015 3 13 18 11.0 156.9 990 45 3 Image Chart
2015 3 14 00 11.7 154.5 990 45 3 Image Chart
2015 3 14 06 12.6 152.6 990 45 3 Image Chart
2015 3 14 12 13.5 151.0 990 45 3 Image Chart
2015 3 14 18 14.0 149.4 990 45 3 Image Chart
2015 3 15 00 14.2 148.0 990 45 3 Image Chart
2015 3 15 06 14.3 146.6 990 45 3 Image Chart
2015 3 15 12 13.2 145.2 992 45 3 Image Chart
2015 3 15 18 13.1 142.3 994 40 3 Image Chart
2015 3 16 00 13.4 141.0 996 35 3 Image Chart
2015 3 16 06 14.1 139.6 996 35 3 Image Chart
2015 3 16 12 14.5 138.4 996 35 3 Image Chart
2015 3 16 18 14.9 137.3 996 35 3 Image Chart
2015 3 17 00 15.1 136.4 996 35 3 Image Chart
2015 3 17 06 15.3 135.4 998 35 3 Image Chart
2015 3 17 12 15.4 134.5 1000 0 2 Image Chart
2015 3 17 18 15.7 133.4 1002 0 2 Image Chart
2015 3 18 00 15.9 133.0 1004 0 2 Image Chart
2015 3 18 06 16.1 132.0 1004 0 2 Image Chart
2015 3 18 12 16.1 131.2 1008 0 2 Image Chart
2015 3 18 18 16.1 130.6 1008 0 2 Image Chart
2015 3 19 00 16.1 129.9 1010 0 2 Image Chart
2015 3 19 06 15.6 129.0 1008 0 2 Image Chart
2015 3 19 12 15.4 128.2 1010 0 2 Image Chart
2015 3 19 18 15.2 127.5 1008 0 2 Image Chart
2015 3 20 00 15.0 126.7 1008 0 2 Image Chart
2015 3 20 06 14.6 125.9 1008 0 2 Image Chart
2015 3 20 12 14.6 125.1 1010 0 2 Image Chart
2015 3 20 18 14.6 124.3 1008 0 2 Image Chart
2015 3 21 00 14.4 123.5 1010 0 2 Image Chart
2015 3 21 06 14.1 122.6 1010 0 2 Image Chart
2015 3 21 12 13.8 121.7 1010 0 2 Image Chart
Japan Meteorological Agency Best Track Data | Correction Date : 2015-04-21
< Typhoon 201502 2015 Season Typhoon 201504 >

Help